OPA Logo
 
ASOS:
At:2021.01.25 0315 UTC
Wind:280° @ 4KT
Viz: 3/4 mile(s)
Sky: overcast
Temp: mist
DewP: 30 F (-1 C)
RH: 24 F (-4 C):1
Baro: 24 F (-4 C):1
ob: KBDN 250315Z AUTO 28004KT 3/4SM BR OVC001 M01/M02 A2967 RMK AO2

ASOS: KRDM
At:2021.01.25 0256 UTC
Wind:280° @ 5KT
Viz: 10 mile(s)
Sky: overcast
Temp: 28.9 F (-1.7 C)
DewP: 23 F (-5 C):1
RH: 26.1 F (-3.3 C)
Baro: 26.1 F (-3.3 C)
ob: KRDM 250256Z 28005KT 10SM BKN003 OVC065 M02/M03 A2966 RMK AO2 SLP077 60000 T10171033 53008
Apache-SSL Logo

Valid HTML 4.01!

Central Oregon OPA Chapter

Upcoming Fly Outs


2004

June

12 Bend, OR - Flying Festival - Bend Airport

Other Fly-Out pages

Oregon Pilots Association Events Calendar

Washington Pilots Association Events

Past Fly Outs


Caldwell, ID and the Kitfox factory February 2002

XMAS Party 2001

Pasco, WA November 2001

Bend Airport Open House 2001

Flyout May 2001 to Flying M Ranch

Flyout April 2001 to Tillamook Air Museum


Web page by: gem@rellim.com